Terminal Aerodrome Forecast
Issued by NWS Wakefield, VA

Home | Current Version | Previous Version | Text Only | Print | Product List | Glossary On
Versions: 1 2 3 4 5 6 7 8 9 10 11 12 13 14 15 16 17
107
FTUS41 KAKQ 280145 AAA
TAFORF
TAF AMD
KORF 280145Z 2802/2824 16004KT P6SM FEW025 SCT060
      TEMPO 2802/2804 6SM -SHRA BKN050
     FM280400 25005KT 6SM -SHRA BKN080
     FM280600 01004KT P6SM BKN120
     FM281400 02008KT P6SM BKN045=

USA.gov is the U.S. government's official web portal to all federal, state and local government web resources and services.